Time;durP1;ratioP1;P1;durP2;ratioP2;P2;SDS_P1;SDS_P2;PMS_P1;PMS_P2;Temp;Humidity;BMP_temperature;BMP_pressure;BME280_temperature;BME280_humidity;BME280_pressure;Samples;Min_cycle;Max_cycle;Signal;HPM_P1;HPM_P2
2022/10/22 00:00:43;;;;;;;15.00;12.17;;;;;;;;;;5072835;28;20535;-55
2022/10/22 00:03:10;;;;;;;13.63;12.23;;;;;;;;;;5072642;28;20890;-53
2022/10/22 00:05:37;;;;;;;14.40;13.00;;;;;;;;;;5072869;28;20507;-57
2022/10/22 00:08:04;;;;;;;13.38;12.05;;;;;;;;;;5073035;28;20448;-56
2022/10/22 00:10:31;;;;;;;15.63;14.13;;;;;;;;;;5072962;28;20272;-56
2022/10/22 00:12:59;;;;;;;15.10;13.50;;;;;;;;;;5072752;28;20447;-54
2022/10/22 00:15:26;;;;;;;14.17;12.57;;;;;;;;;;5072627;28;20538;-57
2022/10/22 00:17:53;;;;;;;14.63;13.10;;;;;;;;;;5072839;28;20539;-56
2022/10/22 00:20:21;;;;;;;16.23;13.93;;;;;;;;;;5072732;28;20897;-54
2022/10/22 00:22:48;;;;;;;16.40;13.87;;;;;;;;;;5072557;28;20451;-56
2022/10/22 00:25:15;;;;;;;19.93;15.00;;;;;;;;;;5072451;28;20479;-55
2022/10/22 00:27:42;;;;;;;17.47;15.00;;;;;;;;;;5072549;28;20454;-54
2022/10/22 00:30:11;;;;;;;19.17;15.37;;;;;;;;;;5072421;28;20542;-55
2022/10/22 00:32:38;;;;;;;15.77;14.07;;;;;;;;;;5072663;28;20535;-56
2022/10/22 00:35:05;;;;;;;15.23;13.67;;;;;;;;;;5072748;28;20457;-57
2022/10/22 00:37:32;;;;;;;16.13;14.43;;;;;;;;;;5072412;28;20462;-56
2022/10/22 00:39:59;;;;;;;15.40;13.80;;;;;;;;;;5072457;28;20485;-57
2022/10/22 00:42:28;;;;;;;15.47;13.87;;;;;;;;;;5072429;28;20447;-55
2022/10/22 00:45:15;;;;;;;16.67;14.50;;;;;;;;;;5072250;28;20816;-57
2022/10/22 00:47:44;;;;;;;15.90;13.40;;;;;;;;;;5072321;28;20478;-57
2022/10/22 00:50:14;;;;;;;12.87;11.57;;;;;;;;;;5072394;28;20443;-57
2022/10/22 00:52:41;;;;;;;16.63;13.97;;;;;;;;;;5072313;28;20453;-57
2022/10/22 00:55:08;;;;;;;13.37;11.97;;;;;;;;;;5072270;28;20451;-57
2022/10/22 00:57:35;;;;;;;13.60;12.13;;;;;;;;;;5072291;28;20609;-56
2022/10/22 01:00:02;;;;;;;18.60;12.10;;;;;;;;;;5072318;28;20451;-55
2022/10/22 01:02:29;;;;;;;15.50;12.93;;;;;;;;;;5072095;28;20961;-53
2022/10/22 01:04:57;;;;;;;15.27;13.67;;;;;;;;;;5072142;28;20455;-53
2022/10/22 01:07:26;;;;;;;13.77;12.10;;;;;;;;;;5072126;28;20454;-55
2022/10/22 01:09:58;;;;;;;17.42;12.82;;;;;;;;;;5072694;28;20558;-57
2022/10/22 01:12:31;;;;;;;14.73;13.20;;;;;;;;;;5075725;28;20199;-56
2022/10/22 01:15:03;;;;;;;16.20;13.90;;;;;;;;;;5075783;28;20455;-57
2022/10/22 01:17:33;;;;;;;16.13;14.10;;;;;;;;;;5075749;28;20455;-57
2022/10/22 01:20:06;;;;;;;18.03;14.70;;;;;;;;;;5075436;28;20712;-56
2022/10/22 01:22:34;;;;;;;17.53;14.93;;;;;;;;;;5075831;28;20492;-57
2022/10/22 01:25:03;;;;;;;18.75;14.68;;;;;;;;;;5075547;28;20455;-56
2022/10/22 01:27:35;;;;;;;14.97;13.47;;;;;;;;;;5075471;28;20195;-56
2022/10/22 01:30:05;;;;;;;17.23;13.80;;;;;;;;;;5075472;28;20486;-56
2022/10/22 01:32:37;;;;;;;16.83;14.77;;;;;;;;;;5075652;28;20443;-56
2022/10/22 01:35:06;;;;;;;17.98;14.65;;;;;;;;;;5075588;28;20538;-56
2022/10/22 01:37:37;;;;;;;17.17;14.43;;;;;;;;;;5075391;28;20185;-57
2022/10/22 01:40:05;;;;;;;15.75;13.57;;;;;;;;;;5075345;28;20452;-56
2022/10/22 01:42:32;;;;;;;15.37;13.77;;;;;;;;;;5075198;28;20288;-57
2022/10/22 01:44:59;;;;;;;14.73;13.33;;;;;;;;;;5075002;28;20504;-56
2022/10/22 01:47:32;;;;;;;16.07;14.07;;;;;;;;;;5074778;28;20491;-57
2022/10/22 01:50:15;;;;;;;15.77;14.03;;;;;;;;;;5074987;28;20918;-56
2022/10/22 01:52:51;;;;;;;17.20;15.27;;;;;;;;;;5075297;28;20946;-56
2022/10/22 01:55:22;;;;;;;18.83;14.60;;;;;;;;;;5075234;28;20447;-57
2022/10/22 01:57:51;;;;;;;16.67;14.90;;;;;;;;;;5074870;28;20454;-56
2022/10/22 02:00:22;;;;;;;14.57;13.17;;;;;;;;;;5075256;28;20451;-56
2022/10/22 02:02:56;;;;;;;16.33;13.45;;;;;;;;;;5074937;28;20522;-56
2022/10/22 02:05:25;;;;;;;13.87;12.40;;;;;;;;;;5074686;28;20196;-56
2022/10/22 02:07:54;;;;;;;13.30;11.93;;;;;;;;;;5074715;28;20534;-55
2022/10/22 02:10:22;;;;;;;17.90;13.90;;;;;;;;;;5074524;28;20922;-56
2022/10/22 02:12:50;;;;;;;16.13;13.83;;;;;;;;;;5074717;28;20882;-56
2022/10/22 02:15:19;;;;;;;15.23;13.50;;;;;;;;;;5074588;28;20554;-62
2022/10/22 02:17:46;;;;;;;16.73;13.80;;;;;;;;;;5074557;28;20453;-55
2022/10/22 02:20:16;;;;;;;16.70;14.63;;;;;;;;;;5074349;28;20543;-56
2022/10/22 02:22:45;;;;;;;16.57;14.60;;;;;;;;;;5074038;28;20486;-55
2022/10/22 02:25:13;;;;;;;13.87;12.43;;;;;;;;;;5074486;28;20453;-53
2022/10/22 02:27:42;;;;;;;16.67;13.03;;;;;;;;;;5074329;28;20483;-51
2022/10/22 02:30:11;;;;;;;17.90;13.67;;;;;;;;;;5074319;28;20451;-56
2022/10/22 02:32:40;;;;;;;13.40;12.00;;;;;;;;;;5074196;28;20534;-53
2022/10/22 02:35:07;;;;;;;13.40;11.97;;;;;;;;;;5074081;28;20546;-52
2022/10/22 02:37:36;;;;;;;13.70;12.23;;;;;;;;;;5074261;28;20457;-51
2022/10/22 02:40:04;;;;;;;15.33;13.70;;;;;;;;;;5074131;28;20546;-53
2022/10/22 02:42:31;;;;;;;13.53;12.20;;;;;;;;;;5074091;28;20451;-56
2022/10/22 02:44:58;;;;;;;13.38;11.93;;;;;;;;;;5074003;28;20855;-55
2022/10/22 02:47:24;;;;;;;15.33;13.20;;;;;;;;;;5073670;28;20240;-56
2022/10/22 02:49:51;;;;;;;15.40;13.77;;;;;;;;;;5073720;28;20494;-57
2022/10/22 02:52:18;;;;;;;15.50;13.82;;;;;;;;;;5073738;28;20542;-56
2022/10/22 02:54:46;;;;;;;14.70;13.20;;;;;;;;;;5073906;28;20186;-56
2022/10/22 02:57:13;;;;;;;14.30;13.00;;;;;;;;;;5073714;28;20542;-55
2022/10/22 02:59:40;;;;;;;15.13;13.37;;;;;;;;;;5073688;28;20447;-54
2022/10/22 03:02:07;;;;;;;16.40;13.50;;;;;;;;;;5073553;28;20447;-55
2022/10/22 03:04:34;;;;;;;14.27;12.77;;;;;;;;;;5073470;28;21005;-56
2022/10/22 03:07:01;;;;;;;16.30;12.17;;;;;;;;;;5073530;28;20482;-55
2022/10/22 03:09:28;;;;;;;16.67;11.88;;;;;;;;;;5073702;28;20455;-53
2022/10/22 03:11:56;;;;;;;15.20;12.80;;;;;;;;;;5073451;28;20199;-56
2022/10/22 03:14:23;;;;;;;16.40;12.60;;;;;;;;;;5073397;28;20539;-55
2022/10/22 03:16:50;;;;;;;13.60;12.20;;;;;;;;;;5073124;28;20542;-55
2022/10/22 03:19:17;;;;;;;14.30;12.90;;;;;;;;;;5073509;28;20823;-56
2022/10/22 03:21:46;;;;;;;13.60;12.20;;;;;;;;;;5073354;28;20516;-55
2022/10/22 03:24:19;;;;;;;14.37;12.63;;;;;;;;;;5073293;28;20549;-53
2022/10/22 03:26:46;;;;;;;14.20;11.97;;;;;;;;;;5073191;28;20515;-56
2022/10/22 03:29:15;;;;;;;16.70;14.77;;;;;;;;;;5073095;28;20538;-56
2022/10/22 03:31:42;;;;;;;16.43;13.97;;;;;;;;;;5073300;28;20451;-56
2022/10/22 03:34:10;;;;;;;17.33;14.73;;;;;;;;;;5072520;28;20444;-57
2022/10/22 03:36:38;;;;;;;14.97;13.30;;;;;;;;;;5073326;28;20451;-55
2022/10/22 03:39:05;;;;;;;17.97;14.57;;;;;;;;;;5073202;28;20448;-54
2022/10/22 03:41:32;;;;;;;21.40;15.80;;;;;;;;;;5073007;28;20443;-57
2022/10/22 03:44:00;;;;;;;17.10;14.00;;;;;;;;;;5072896;28;20447;-56
2022/10/22 03:46:28;;;;;;;19.37;15.20;;;;;;;;;;5073047;28;20574;-56
2022/10/22 03:48:55;;;;;;;18.80;14.33;;;;;;;;;;5072990;28;20479;-56
2022/10/22 03:51:22;;;;;;;18.53;15.10;;;;;;;;;;5072925;28;20538;-56
2022/10/22 03:53:49;;;;;;;24.53;17.20;;;;;;;;;;5072928;28;20892;-56
2022/10/22 03:56:16;;;;;;;21.40;15.30;;;;;;;;;;5072778;28;20474;-58
2022/10/22 03:58:43;;;;;;;21.17;17.10;;;;;;;;;;5072758;28;20447;-56
2022/10/22 04:01:11;;;;;;;18.87;15.70;;;;;;;;;;5072748;28;20447;-57
2022/10/22 04:03:40;;;;;;;18.37;14.80;;;;;;;;;;5072864;28;20530;-55
2022/10/22 04:06:08;;;;;;;17.40;14.20;;;;;;;;;;5072656;28;21041;-57
2022/10/22 04:08:35;;;;;;;18.20;15.10;;;;;;;;;;5072733;28;20874;-54
2022/10/22 04:11:02;;;;;;;15.60;13.43;;;;;;;;;;5072589;28;20447;-54
2022/10/22 04:13:29;;;;;;;15.20;12.47;;;;;;;;;;5072870;28;20457;-55
2022/10/22 04:15:56;;;;;;;15.50;13.30;;;;;;;;;;5072719;28;20461;-56
2022/10/22 04:18:23;;;;;;;15.57;12.57;;;;;;;;;;5072954;28;20881;-56
2022/10/22 04:20:53;;;;;;;16.50;14.30;;;;;;;;;;5072858;28;20447;-55
2022/10/22 04:23:20;;;;;;;15.73;13.47;;;;;;;;;;5072534;28;20447;-55
2022/10/22 04:25:46;;;;;;;14.83;13.17;;;;;;;;;;5072673;28;20546;-55
2022/10/22 04:28:13;;;;;;;15.27;13.37;;;;;;;;;;5072392;28;20479;-54
2022/10/22 04:30:40;;;;;;;13.47;12.17;;;;;;;;;;5072599;28;20900;-54
2022/10/22 04:33:07;;;;;;;15.37;12.63;;;;;;;;;;5072468;28;20485;-52
2022/10/22 04:35:39;;;;;;;13.80;12.33;;;;;;;;;;5072361;28;20938;-57
2022/10/22 04:38:08;;;;;;;12.83;11.57;;;;;;;;;;5072415;28;20447;-54
2022/10/22 04:40:36;;;;;;;12.17;10.90;;;;;;;;;;5072575;28;20530;-56
2022/10/22 04:43:03;;;;;;;12.33;11.13;;;;;;;;;;5072490;28;20840;-57
2022/10/22 04:45:31;;;;;;;14.20;11.50;;;;;;;;;;5075719;28;20458;-53
2022/10/22 04:47:58;;;;;;;12.40;11.10;;;;;;;;;;5076128;28;20846;-55
2022/10/22 04:50:25;;;;;;;12.40;11.20;;;;;;;;;;5076080;28;20458;-56
2022/10/22 04:52:52;;;;;;;10.80;9.87;;;;;;;;;;5076253;28;20447;-57
2022/10/22 04:55:20;;;;;;;12.50;10.57;;;;;;;;;;5076106;28;20461;-56
2022/10/22 04:57:47;;;;;;;15.37;11.57;;;;;;;;;;5076149;28;20457;-57
2022/10/22 05:00:15;;;;;;;12.60;11.40;;;;;;;;;;5076047;28;20899;-55
2022/10/22 05:02:43;;;;;;;11.65;10.50;;;;;;;;;;5076076;28;20501;-57
2022/10/22 05:05:10;;;;;;;11.80;10.50;;;;;;;;;;5075731;28;20200;-55
2022/10/22 05:07:37;;;;;;;12.10;10.90;;;;;;;;;;5075870;28;20556;-57
2022/10/22 05:10:04;;;;;;;11.80;10.60;;;;;;;;;;5075916;28;20447;-57
2022/10/22 05:12:32;;;;;;;12.73;11.43;;;;;;;;;;5075810;28;20451;-57
2022/10/22 05:14:59;;;;;;;11.57;10.43;;;;;;;;;;5075732;28;20453;-55
2022/10/22 05:17:26;;;;;;;11.80;10.70;;;;;;;;;;5075578;28;20542;-56
2022/10/22 05:19:53;;;;;;;13.03;11.10;;;;;;;;;;5075523;28;20544;-56
2022/10/22 05:22:20;;;;;;;16.93;11.80;;;;;;;;;;5075761;28;20447;-54
2022/10/22 05:24:47;;;;;;;11.70;10.47;;;;;;;;;;5075656;28;20887;-52
2022/10/22 05:27:14;;;;;;;13.43;11.93;;;;;;;;;;5075420;28;20471;-54
2022/10/22 05:29:43;;;;;;;13.40;11.90;;;;;;;;;;5075416;28;20807;-53
2022/10/22 05:32:09;;;;;;;11.90;10.70;;;;;;;;;;5075282;28;20554;-56
2022/10/22 05:34:36;;;;;;;11.17;10.17;;;;;;;;;;5075562;28;20450;-56
2022/10/22 05:37:04;;;;;;;14.53;13.10;;;;;;;;;;5075389;28;20978;-55
2022/10/22 05:39:35;;;;;;;13.63;12.10;;;;;;;;;;5075557;28;20465;-55
2022/10/22 05:42:02;;;;;;;15.35;12.73;;;;;;;;;;5075239;28;20501;-56
2022/10/22 05:44:29;;;;;;;13.50;11.93;;;;;;;;;;5075191;28;20227;-54
2022/10/22 05:46:57;;;;;;;11.23;10.13;;;;;;;;;;5074715;28;20471;-56
2022/10/22 05:49:24;;;;;;;15.63;12.00;;;;;;;;;;5075247;28;20981;-58
2022/10/22 05:51:51;;;;;;;12.70;11.40;;;;;;;;;;5075146;28;20451;-55
2022/10/22 05:54:20;;;;;;;12.73;11.23;;;;;;;;;;5075039;28;20447;-56
2022/10/22 05:56:47;;;;;;;11.33;10.23;;;;;;;;;;5074190;28;20189;-55
2022/10/22 05:59:14;;;;;;;11.70;10.53;;;;;;;;;;5074811;28;20957;-56
2022/10/22 06:01:41;;;;;;;16.67;10.93;;;;;;;;;;5074779;28;20483;-56
2022/10/22 06:04:11;;;;;;;13.27;10.45;;;;;;;;;;5074953;28;20447;-56
2022/10/22 06:06:39;;;;;;;12.00;10.80;;;;;;;;;;5074765;28;20231;-55
2022/10/22 06:09:07;;;;;;;13.97;11.70;;;;;;;;;;5074761;28;20458;-54
2022/10/22 06:11:34;;;;;;;15.27;12.00;;;;;;;;;;5074646;28;20946;-54
2022/10/22 06:14:04;;;;;;;14.73;13.33;;;;;;;;;;5074461;28;20275;-51
2022/10/22 06:16:31;;;;;;;13.53;12.13;;;;;;;;;;5074610;28;20542;-56
2022/10/22 06:18:59;;;;;;;15.67;12.60;;;;;;;;;;5074659;28;20814;-56
2022/10/22 06:21:27;;;;;;;13.70;12.40;;;;;;;;;;5074871;28;20451;-54
2022/10/22 06:23:55;;;;;;;11.83;10.77;;;;;;;;;;5074359;28;20447;-56
2022/10/22 06:26:22;;;;;;;13.17;11.30;;;;;;;;;;5074249;28;20458;-56
2022/10/22 06:28:49;;;;;;;13.07;11.57;;;;;;;;;;5074181;28;21028;-57
2022/10/22 06:31:16;;;;;;;13.93;12.40;;;;;;;;;;5074389;28;20447;-56
2022/10/22 06:33:44;;;;;;;11.53;10.43;;;;;;;;;;5074294;28;20448;-56
2022/10/22 06:36:12;;;;;;;13.53;12.30;;;;;;;;;;5074177;28;20541;-55
2022/10/22 06:38:40;;;;;;;15.43;11.97;;;;;;;;;;5074086;28;20451;-55
2022/10/22 06:41:08;;;;;;;14.60;13.20;;;;;;;;;;5073922;28;20543;-55
2022/10/22 06:43:35;;;;;;;12.30;11.30;;;;;;;;;;5074145;28;21016;-56
2022/10/22 06:46:02;;;;;;;14.30;12.23;;;;;;;;;;5073986;28;20581;-56
2022/10/22 06:48:29;;;;;;;11.87;10.77;;;;;;;;;;5073772;28;20581;-55
2022/10/22 06:50:56;;;;;;;13.20;11.80;;;;;;;;;;5073893;28;20872;-55
2022/10/22 06:53:23;;;;;;;13.10;11.27;;;;;;;;;;5073518;28;20448;-55
2022/10/22 06:55:51;;;;;;;12.77;11.53;;;;;;;;;;5073650;28;20797;-53
2022/10/22 06:58:20;;;;;;;12.57;10.73;;;;;;;;;;5073858;28;20473;-56
2022/10/22 07:00:47;;;;;;;12.77;11.37;;;;;;;;;;5073778;28;20451;-57
2022/10/22 07:03:16;;;;;;;12.50;11.30;;;;;;;;;;5073639;28;20448;-55
2022/10/22 07:05:43;;;;;;;11.80;10.70;;;;;;;;;;5073515;28;20534;-57
2022/10/22 07:08:10;;;;;;;12.60;11.40;;;;;;;;;;5072283;28;21001;-56
2022/10/22 07:10:37;;;;;;;12.10;10.23;;;;;;;;;;5073633;28;20554;-55
2022/10/22 07:13:05;;;;;;;13.90;11.00;;;;;;;;;;5073469;28;20538;-56
2022/10/22 07:15:32;;;;;;;12.03;10.83;;;;;;;;;;5073387;28;20451;-56
2022/10/22 07:18:03;;;;;;;13.10;11.80;;;;;;;;;;5073599;28;20517;-56
2022/10/22 07:20:30;;;;;;;14.47;12.90;;;;;;;;;;5073266;28;20953;-56
2022/10/22 07:22:57;;;;;;;12.83;11.63;;;;;;;;;;5073697;28;20454;-57
2022/10/22 07:25:24;;;;;;;12.87;11.67;;;;;;;;;;5073431;28;20543;-53
2022/10/22 07:27:51;;;;;;;12.77;11.60;;;;;;;;;;5073113;28;20973;-56
2022/10/22 07:30:19;;;;;;;14.50;13.20;;;;;;;;;;5073330;28;20447;-56
2022/10/22 07:32:48;;;;;;;14.00;12.60;;;;;;;;;;5073442;28;20460;-56
2022/10/22 07:35:17;;;;;;;14.43;13.13;;;;;;;;;;5072939;28;20449;-57
2022/10/22 07:37:47;;;;;;;14.40;13.05;;;;;;;;;;5073288;28;20283;-55
2022/10/22 07:40:14;;;;;;;12.73;11.63;;;;;;;;;;5073164;28;20196;-56
2022/10/22 07:42:41;;;;;;;15.10;13.60;;;;;;;;;;5073073;28;20447;-54
2022/10/22 07:45:08;;;;;;;12.77;11.50;;;;;;;;;;5073019;28;20550;-56
2022/10/22 07:47:36;;;;;;;13.50;11.83;;;;;;;;;;5072588;28;20479;-57
2022/10/22 07:50:04;;;;;;;13.73;12.30;;;;;;;;;;5073211;28;20443;-56
2022/10/22 07:52:31;;;;;;;11.88;10.68;;;;;;;;;;5072935;28;20546;-56
2022/10/22 07:54:57;;;;;;;13.07;11.63;;;;;;;;;;5072708;28;20635;-55
2022/10/22 07:57:24;;;;;;;14.63;11.60;;;;;;;;;;5072784;28;20451;-57
2022/10/22 07:59:51;;;;;;;12.63;11.17;;;;;;;;;;5072836;28;20447;-57
2022/10/22 08:02:18;;;;;;;13.17;11.97;;;;;;;;;;5072636;28;20538;-56
2022/10/22 08:04:46;;;;;;;13.33;11.80;;;;;;;;;;5072638;28;20535;-56
2022/10/22 08:07:15;;;;;;;15.80;11.80;;;;;;;;;;5072563;28;21009;-56
2022/10/22 08:09:42;;;;;;;13.80;12.40;;;;;;;;;;5072529;28;21044;-56
2022/10/22 08:12:09;;;;;;;14.07;12.63;;;;;;;;;;5072753;28;20479;-56
2022/10/22 08:14:36;;;;;;;14.30;12.97;;;;;;;;;;5072658;28;20445;-56
2022/10/22 08:17:03;;;;;;;13.20;11.70;;;;;;;;;;5072743;28;20539;-56
2022/10/22 08:19:31;;;;;;;13.43;12.23;;;;;;;;;;5074645;28;20188;-56
2022/10/22 08:21:59;;;;;;;13.67;12.47;;;;;;;;;;5076769;28;20497;-54
2022/10/22 08:24:26;;;;;;;14.60;13.17;;;;;;;;;;5076919;28;20465;-54
2022/10/22 08:26:54;;;;;;;13.37;12.07;;;;;;;;;;5076567;28;20465;-56
2022/10/22 08:29:22;;;;;;;12.70;11.60;;;;;;;;;;5076574;28;20529;-52
2022/10/22 08:31:49;;;;;;;12.90;11.70;;;;;;;;;;5077055;28;20451;-53
2022/10/22 08:34:17;;;;;;;13.27;12.00;;;;;;;;;;5077064;28;20809;-53
2022/10/22 08:36:44;;;;;;;13.70;12.40;;;;;;;;;;5076492;28;21016;-55
2022/10/22 08:39:12;;;;;;;13.53;12.00;;;;;;;;;;5076390;28;20454;-56
2022/10/22 08:41:45;;;;;;;12.87;11.77;;;;;;;;;;5076306;28;20451;-55
2022/10/22 08:44:19;;;;;;;15.55;12.10;;;;;;;;;;5076546;28;20949;-54
2022/10/22 08:46:59;;;;;;;14.07;11.77;;;;;;;;;;5076283;28;20276;-56
2022/10/22 08:49:28;;;;;;;14.73;13.33;;;;;;;;;;5076021;28;20735;-55
2022/10/22 08:51:55;;;;;;;15.33;13.87;;;;;;;;;;5076073;28;20454;-54
2022/10/22 08:54:28;;;;;;;19.77;17.47;;;;;;;;;;5075938;28;20562;-55
2022/10/22 08:57:03;;;;;;;15.60;13.93;;;;;;;;;;5076110;28;20870;-54
2022/10/22 08:59:34;;;;;;;14.15;12.88;;;;;;;;;;5076064;28;20450;-55
2022/10/22 09:02:01;;;;;;;17.87;13.50;;;;;;;;;;5075821;28;20199;-54
2022/10/22 09:04:31;;;;;;;15.17;13.67;;;;;;;;;;5075761;28;20862;-55
2022/10/22 09:06:59;;;;;;;14.07;12.57;;;;;;;;;;5075807;28;20453;-55
2022/10/22 09:09:29;;;;;;;14.60;13.10;;;;;;;;;;5075777;28;20485;-56
2022/10/22 09:12:00;;;;;;;14.67;13.27;;;;;;;;;;5075903;28;20542;-56
2022/10/22 09:14:28;;;;;;;13.87;12.47;;;;;;;;;;5075681;28;20454;-54
2022/10/22 09:17:03;;;;;;;28.17;25.53;;;;;;;;;;5075497;28;20798;-55
2022/10/22 09:19:33;;;;;;;17.87;16.07;;;;;;;;;;5075612;28;20442;-55
2022/10/22 09:22:05;;;;;;;16.30;14.57;;;;;;;;;;5075958;28;20546;-55
2022/10/22 09:24:37;;;;;;;14.93;13.63;;;;;;;;;;5075783;28;20891;-54
2022/10/22 09:27:10;;;;;;;12.80;11.70;;;;;;;;;;5075438;28;20534;-54
2022/10/22 09:29:37;;;;;;;14.07;12.70;;;;;;;;;;5075338;28;20573;-57
2022/10/22 09:32:04;;;;;;;14.30;12.80;;;;;;;;;;5074383;28;20451;-56
2022/10/22 09:34:35;;;;;;;14.27;13.00;;;;;;;;;;5075552;28;20456;-55
2022/10/22 09:37:04;;;;;;;14.68;13.27;;;;;;;;;;5075373;28;20887;-54
2022/10/22 09:39:34;;;;;;;14.60;13.20;;;;;;;;;;5075545;28;20280;-56
2022/10/22 09:42:01;;;;;;;13.53;11.87;;;;;;;;;;5075225;28;20452;-54
2022/10/22 09:44:28;;;;;;;14.27;12.40;;;;;;;;;;5075336;28;20451;-56
2022/10/22 09:46:59;;;;;;;14.57;13.17;;;;;;;;;;5075109;28;20284;-52
2022/10/22 09:49:30;;;;;;;12.63;11.50;;;;;;;;;;5075104;28;20483;-56
2022/10/22 09:51:58;;;;;;;13.70;12.50;;;;;;;;;;5074898;28;20485;-54
2022/10/22 09:54:25;;;;;;;15.13;13.70;;;;;;;;;;5074967;28;20888;-56
2022/10/22 09:57:00;;;;;;;13.57;12.27;;;;;;;;;;5074759;28;20452;-53
2022/10/22 09:59:28;;;;;;;14.97;13.20;;;;;;;;;;5075050;28;20465;-57
2022/10/22 10:01:59;;;;;;;14.73;13.33;;;;;;;;;;5074890;28;20807;-54
2022/10/22 10:04:26;;;;;;;13.77;12.47;;;;;;;;;;5074772;28;20554;-53
2022/10/22 10:06:55;;;;;;;13.67;12.37;;;;;;;;;;5074705;28;20478;-56
2022/10/22 10:09:22;;;;;;;14.10;12.80;;;;;;;;;;5074557;28;20962;-56
2022/10/22 10:11:52;;;;;;;12.77;11.47;;;;;;;;;;5074837;28;20965;-56
2022/10/22 10:14:27;;;;;;;13.23;12.13;;;;;;;;;;5074731;28;20479;-56
2022/10/22 10:16:58;;;;;;;14.57;13.07;;;;;;;;;;5074526;28;20816;-58
2022/10/22 10:19:35;;;;;;;12.73;11.43;;;;;;;;;;5074467;28;20451;-55
2022/10/22 10:22:13;;;;;;;13.27;11.98;;;;;;;;;;5074366;28;20443;-55
2022/10/22 10:24:49;;;;;;;13.83;12.00;;;;;;;;;;5074496;28;20188;-55
2022/10/22 10:27:21;;;;;;;14.87;11.60;;;;;;;;;;5074669;28;20457;-54
2022/10/22 10:29:53;;;;;;;12.70;11.40;;;;;;;;;;5074219;28;20507;-57
2022/10/22 10:32:26;;;;;;;11.63;10.57;;;;;;;;;;5074132;28;20542;-56
2022/10/22 10:34:59;;;;;;;13.40;12.20;;;;;;;;;;5074359;28;20534;-56
2022/10/22 10:37:28;;;;;;;12.10;10.90;;;;;;;;;;5074021;28;20457;-57
2022/10/22 10:40:00;;;;;;;12.77;11.60;;;;;;;;;;5073982;28;20483;-56
2022/10/22 10:42:33;;;;;;;12.30;11.23;;;;;;;;;;5073677;28;20458;-56
2022/10/22 10:45:03;;;;;;;13.05;11.65;;;;;;;;;;5073690;28;20454;-55
2022/10/22 10:47:41;;;;;;;11.47;10.27;;;;;;;;;;5073696;28;20243;-55
2022/10/22 10:50:16;;;;;;;12.40;11.13;;;;;;;;;;5073549;28;20482;-56
2022/10/22 10:52:45;;;;;;;12.13;9.93;;;;;;;;;;5073860;28;20192;-55
2022/10/22 10:55:16;;;;;;;11.83;10.63;;;;;;;;;;5073600;28;20865;-55
2022/10/22 10:57:49;;;;;;;10.17;9.07;;;;;;;;;;5073903;28;20466;-56
2022/10/22 11:00:19;;;;;;;13.23;11.40;;;;;;;;;;5073781;28;20482;-56
2022/10/22 11:02:52;;;;;;;10.90;9.83;;;;;;;;;;5073738;28;20461;-57
2022/10/22 11:05:27;;;;;;;12.90;11.60;;;;;;;;;;5073463;28;20947;-56
2022/10/22 11:07:56;;;;;;;13.73;10.90;;;;;;;;;;5073381;28;20939;-56
2022/10/22 11:10:28;;;;;;;12.90;11.57;;;;;;;;;;5073522;28;20249;-56
2022/10/22 11:12:58;;;;;;;12.43;10.00;;;;;;;;;;5073538;28;20457;-51
2022/10/22 11:15:28;;;;;;;12.73;11.50;;;;;;;;;;5073319;28;20542;-55
2022/10/22 11:17:57;;;;;;;12.47;11.27;;;;;;;;;;5073330;28;20546;-56
2022/10/22 11:20:26;;;;;;;13.60;10.87;;;;;;;;;;5073528;28;20550;-55
2022/10/22 11:22:56;;;;;;;11.52;10.60;;;;;;;;;;5073306;28;20788;-57
2022/10/22 11:25:25;;;;;;;12.17;11.07;;;;;;;;;;5073153;28;20185;-54
2022/10/22 11:27:55;;;;;;;11.63;9.37;;;;;;;;;;5073029;28;20452;-54
2022/10/22 11:30:23;;;;;;;11.73;10.17;;;;;;;;;;5073131;28;20573;-56
2022/10/22 11:32:53;;;;;;;15.50;10.60;;;;;;;;;;5073059;28;20922;-55
2022/10/22 11:35:22;;;;;;;11.53;10.33;;;;;;;;;;5073176;28;20538;-55
2022/10/22 11:37:50;;;;;;;11.68;10.50;;;;;;;;;;5073016;28;20550;-55
2022/10/22 11:40:19;;;;;;;12.97;11.60;;;;;;;;;;5073490;28;20185;-54
2022/10/22 11:42:46;;;;;;;16.83;10.90;;;;;;;;;;5072880;28;20546;-53
2022/10/22 11:45:28;;;;;;;14.13;12.07;;;;;;;;;;5072783;28;20489;-54
2022/10/22 11:48:01;;;;;;;12.87;11.50;;;;;;;;;;5072884;28;20811;-54
2022/10/22 11:50:29;;;;;;;13.93;12.53;;;;;;;;;;5072860;28;20483;-56
2022/10/22 11:53:01;;;;;;;12.65;10.40;;;;;;;;;;5072649;28;20455;-55
2022/10/22 11:55:32;;;;;;;16.37;10.53;;;;;;;;;;5072353;28;20190;-52
2022/10/22 11:58:00;;;;;;;14.93;11.67;;;;;;;;;;5072680;28;20547;-52
2022/10/22 12:00:35;;;;;;;13.47;12.03;;;;;;;;;;5072871;28;20543;-51
2022/10/22 12:03:05;;;;;;;11.82;10.73;;;;;;;;;;5072660;28;20455;-55
2022/10/22 12:05:36;;;;;;;13.63;12.17;;;;;;;;;;5072430;28;20196;-51
2022/10/22 12:08:23;;;;;;;14.27;10.90;;;;;;;;;;5072463;28;20542;-53
2022/10/22 12:10:56;;;;;;;13.30;11.97;;;;;;;;;;5072769;28;20888;-52
2022/10/22 12:13:24;;;;;;;16.33;10.40;;;;;;;;;;5072577;28;20947;-52
2022/10/22 12:15:53;;;;;;;11.67;10.37;;;;;;;;;;5072571;28;20806;-54
2022/10/22 12:18:28;;;;;;;13.27;11.00;;;;;;;;;;5072531;28;20444;-56
2022/10/22 12:20:55;;;;;;;12.80;9.60;;;;;;;;;;5072868;28;20447;-54
2022/10/22 12:23:27;;;;;;;9.30;8.40;;;;;;;;;;5072720;28;20534;-56
2022/10/22 12:25:54;;;;;;;10.27;9.20;;;;;;;;;;5072534;28;20547;-55
2022/10/22 12:28:21;;;;;;;11.43;10.10;;;;;;;;;;5072828;28;20454;-56
2022/10/22 12:30:50;;;;;;;9.10;8.30;;;;;;;;;;5072383;28;20478;-58
2022/10/22 12:33:21;;;;;;;10.32;9.32;;;;;;;;;;5072388;28;20447;-56
2022/10/22 12:35:56;;;;;;;10.27;9.27;;;;;;;;;;5072531;28;20280;-55
2022/10/22 12:38:26;;;;;;;12.93;9.00;;;;;;;;;;5072538;28;20457;-55
2022/10/22 12:40:55;;;;;;;9.00;8.20;;;;;;;;;;5072568;28;20454;-55
2022/10/22 12:43:29;;;;;;;8.25;7.50;;;;;;;;;;5072875;28;20878;-56
2022/10/22 12:45:57;;;;;;;7.23;6.53;;;;;;;;;;5072300;28;20722;-55
2022/10/22 12:48:25;;;;;;;10.63;7.43;;;;;;;;;;5072258;28;20486;-56
2022/10/22 12:50:54;;;;;;;7.20;6.03;;;;;;;;;;5072530;28;20583;-55
2022/10/22 12:53:23;;;;;;;9.80;5.85;;;;;;;;;;5072423;28;20479;-56
2022/10/22 12:55:51;;;;;;;6.37;5.87;;;;;;;;;;5072095;28;20636;-54
2022/10/22 12:58:20;;;;;;;10.07;6.07;;;;;;;;;;5072630;28;20962;-56
2022/10/22 13:00:47;;;;;;;5.60;5.20;;;;;;;;;;5072175;28;20447;-56
2022/10/22 13:03:29;;;;;;;5.80;5.20;;;;;;;;;;5072249;28;20871;-58
2022/10/22 13:06:00;;;;;;;7.20;5.20;;;;;;;;;;5074331;28;20481;-56
2022/10/22 13:08:28;;;;;;;4.90;4.00;;;;;;;;;;5075938;28;20451;-56
2022/10/22 13:10:55;;;;;;;5.23;4.73;;;;;;;;;;5075915;28;20830;-55
2022/10/22 13:13:30;;;;;;;5.53;4.90;;;;;;;;;;5075880;28;20545;-56
2022/10/22 13:15:57;;;;;;;7.40;4.07;;;;;;;;;;5075651;28;20442;-56
2022/10/22 13:18:27;;;;;;;4.40;3.95;;;;;;;;;;5075631;28;20542;-56
2022/10/22 13:20:55;;;;;;;4.37;3.20;;;;;;;;;;5075562;28;20193;-55
2022/10/22 13:23:26;;;;;;;4.13;3.73;;;;;;;;;;5075498;28;20930;-56
2022/10/22 13:26:00;;;;;;;4.27;3.73;;;;;;;;;;5075552;28;20443;-55
2022/10/22 13:28:27;;;;;;;5.33;3.20;;;;;;;;;;5075479;28;20486;-52
2022/10/22 13:30:55;;;;;;;11.80;3.77;;;;;;;;;;5075314;28;20477;-54
2022/10/22 13:33:25;;;;;;;2.93;2.73;;;;;;;;;;5075255;28;20534;-55
2022/10/22 13:35:51;;;;;;;2.90;2.70;;;;;;;;;;5075461;28;20457;-55
2022/10/22 13:38:20;;;;;;;3.03;2.37;;;;;;;;;;5075328;28;20450;-56
2022/10/22 13:40:48;;;;;;;3.80;3.10;;;;;;;;;;5075256;28;20541;-53
2022/10/22 13:43:16;;;;;;;4.53;2.60;;;;;;;;;;5075188;28;20733;-54
2022/10/22 13:45:43;;;;;;;3.88;2.67;;;;;;;;;;5075123;28;20443;-55
2022/10/22 13:48:13;;;;;;;3.50;2.57;;;;;;;;;;5074932;28;20316;-55
2022/10/22 13:50:40;;;;;;;3.05;2.60;;;;;;;;;;5075084;28;20562;-55
2022/10/22 13:53:08;;;;;;;7.20;2.70;;;;;;;;;;5075036;28;20190;-54
2022/10/22 13:55:35;;;;;;;4.50;2.63;;;;;;;;;;5074644;28;20985;-53
2022/10/22 13:58:06;;;;;;;2.33;2.10;;;;;;;;;;5074834;28;20453;-54
2022/10/22 14:00:35;;;;;;;3.67;1.90;;;;;;;;;;5074763;28;20454;-55
2022/10/22 14:03:02;;;;;;;4.33;2.13;;;;;;;;;;5074913;28;20531;-52
2022/10/22 14:05:29;;;;;;;3.50;1.87;;;;;;;;;;5074759;28;20454;-55
2022/10/22 14:07:56;;;;;;;5.47;2.33;;;;;;;;;;5074757;28;20803;-52
2022/10/22 14:10:24;;;;;;;2.85;1.90;;;;;;;;;;5074537;28;20443;-55
2022/10/22 14:12:52;;;;;;;4.23;1.93;;;;;;;;;;5074643;28;20191;-54
2022/10/22 14:15:22;;;;;;;5.27;2.00;;;;;;;;;;5074355;28;20455;-54
2022/10/22 14:17:50;;;;;;;6.53;1.93;;;;;;;;;;5073923;28;20500;-53
2022/10/22 14:20:18;;;;;;;5.77;2.17;;;;;;;;;;5074461;28;20461;-55
2022/10/22 14:22:47;;;;;;;3.13;2.20;;;;;;;;;;5074394;28;20501;-54
2022/10/22 14:25:14;;;;;;;4.37;2.00;;;;;;;;;;5074221;28;20806;-54
2022/10/22 14:27:41;;;;;;;3.70;2.00;;;;;;;;;;5074170;28;20819;-53
2022/10/22 14:30:09;;;;;;;3.63;2.00;;;;;;;;;;5074439;28;20454;-49